Time;durP1;ratioP1;P1;durP2;ratioP2;P2;SDS_P1;SDS_P2;PMS_P1;PMS_P2;Temp;Humidity;BMP_temperature;BMP_pressure;BME280_temperature;BME280_humidity;BME280_pressure;Samples;Min_cycle;Max_cycle;Signal;HPM_P1;HPM_P2
2023/05/07 00:02:10;;;;;;;10.38;9.45;;;;;;;;;;5069620;28;20479;-57
2023/05/07 00:04:38;;;;;;;10.98;9.88;;;;;;;;;;5070462;28;20782;-57
2023/05/07 00:07:05;;;;;;;11.63;10.52;;;;;;;;;;5070353;28;20411;-56
2023/05/07 00:09:31;;;;;;;11.85;10.77;;;;;;;;;;5069996;28;20411;-57
2023/05/07 00:11:57;;;;;;;12.35;11.15;;;;;;;;;;5069827;28;20454;-55
2023/05/07 00:14:24;;;;;;;15.60;14.10;;;;;;;;;;5067788;28;20392;-55
2023/05/07 00:16:50;;;;;;;12.23;10.93;;;;;;;;;;5071971;28;20491;-55
2023/05/07 00:19:16;;;;;;;12.43;11.20;;;;;;;;;;5074077;28;20849;-55
2023/05/07 00:21:42;;;;;;;11.10;10.10;;;;;;;;;;5073897;28;20463;-55
2023/05/07 00:24:08;;;;;;;10.75;9.77;;;;;;;;;;5074075;28;20762;-56
2023/05/07 00:26:34;;;;;;;11.83;10.67;;;;;;;;;;5074262;28;20392;-55
2023/05/07 00:29:00;;;;;;;12.52;11.27;;;;;;;;;;5073856;28;20405;-56
2023/05/07 00:31:28;;;;;;;13.23;11.83;;;;;;;;;;5073958;28;20470;-56
2023/05/07 00:33:54;;;;;;;12.82;11.52;;;;;;;;;;5073709;28;20804;-56
2023/05/07 00:36:20;;;;;;;12.75;11.55;;;;;;;;;;5073866;28;20400;-55
2023/05/07 00:38:46;;;;;;;13.15;11.85;;;;;;;;;;5073902;28;20395;-56
2023/05/07 00:41:12;;;;;;;12.70;11.50;;;;;;;;;;5073774;28;20388;-56
2023/05/07 00:43:37;;;;;;;12.45;11.25;;;;;;;;;;5073927;28;20392;-55
2023/05/07 00:46:04;;;;;;;12.52;11.35;;;;;;;;;;5073613;28;20870;-55
2023/05/07 00:48:31;;;;;;;12.40;11.27;;;;;;;;;;5073423;28;20449;-55
2023/05/07 00:50:57;;;;;;;12.93;11.63;;;;;;;;;;5073384;28;20422;-56
2023/05/07 00:53:23;;;;;;;12.68;11.50;;;;;;;;;;5073521;28;20411;-55
2023/05/07 00:55:49;;;;;;;11.82;10.63;;;;;;;;;;5073645;28;20433;-55
2023/05/07 00:58:16;;;;;;;11.43;10.43;;;;;;;;;;5073198;28;20453;-55
2023/05/07 01:00:42;;;;;;;12.43;11.25;;;;;;;;;;5073401;28;20396;-56
2023/05/07 01:03:08;;;;;;;12.27;11.18;;;;;;;;;;5071395;28;20464;-57
2023/05/07 01:05:36;;;;;;;11.50;10.45;;;;;;;;;;5071731;28;20823;-55
2023/05/07 01:08:02;;;;;;;12.02;10.88;;;;;;;;;;5073615;28;20924;-56
2023/05/07 01:10:30;;;;;;;11.63;10.53;;;;;;;;;;5073441;28;20392;-55
2023/05/07 01:12:57;;;;;;;12.65;11.48;;;;;;;;;;5073573;28;20404;-55
2023/05/07 01:15:23;;;;;;;12.10;10.90;;;;;;;;;;5073442;28;20395;-55
2023/05/07 01:17:49;;;;;;;11.95;10.85;;;;;;;;;;5073521;28;20951;-55
2023/05/07 01:20:15;;;;;;;12.35;11.25;;;;;;;;;;5073316;28;20416;-55
2023/05/07 01:22:43;;;;;;;13.13;11.93;;;;;;;;;;5073335;28;20384;-55
2023/05/07 01:25:09;;;;;;;13.77;12.48;;;;;;;;;;5073345;28;20407;-55
2023/05/07 01:27:36;;;;;;;13.02;11.75;;;;;;;;;;5073425;28;20439;-55
2023/05/07 01:30:03;;;;;;;12.68;11.52;;;;;;;;;;5073426;28;20399;-57
2023/05/07 01:32:32;;;;;;;13.83;12.50;;;;;;;;;;5073076;28;20992;-57
2023/05/07 01:34:59;;;;;;;14.10;12.73;;;;;;;;;;5072899;28;20914;-57
2023/05/07 01:37:25;;;;;;;14.68;13.20;;;;;;;;;;5073126;28;20404;-56
2023/05/07 01:39:52;;;;;;;12.95;11.68;;;;;;;;;;5073142;28;20400;-54
2023/05/07 01:42:18;;;;;;;13.57;12.27;;;;;;;;;;5073078;28;20408;-57
2023/05/07 01:44:45;;;;;;;13.55;12.25;;;;;;;;;;5073090;28;20408;-55
2023/05/07 01:47:11;;;;;;;13.88;12.48;;;;;;;;;;5072895;28;20465;-57
2023/05/07 01:49:37;;;;;;;13.70;12.40;;;;;;;;;;5073014;28;20400;-57
2023/05/07 01:52:03;;;;;;;14.10;12.80;;;;;;;;;;5072840;28;20901;-56
2023/05/07 01:54:30;;;;;;;13.25;11.95;;;;;;;;;;5072845;28;20399;-55
2023/05/07 01:56:57;;;;;;;13.53;12.23;;;;;;;;;;5072522;28;20396;-55
2023/05/07 01:59:23;;;;;;;14.20;12.80;;;;;;;;;;5072779;28;20487;-56
2023/05/07 02:01:49;;;;;;;14.05;12.65;;;;;;;;;;5072905;28;20399;-55
2023/05/07 02:04:15;;;;;;;13.95;12.52;;;;;;;;;;5072561;28;20396;-55
2023/05/07 02:06:41;;;;;;;14.68;13.02;;;;;;;;;;5072531;28;20407;-55
2023/05/07 02:09:08;;;;;;;13.65;12.32;;;;;;;;;;5072783;28;20407;-55
2023/05/07 02:11:34;;;;;;;15.68;14.13;;;;;;;;;;5072879;28;20403;-57
2023/05/07 02:14:02;;;;;;;15.50;14.10;;;;;;;;;;5072698;28;20392;-55
2023/05/07 02:16:28;;;;;;;15.63;13.93;;;;;;;;;;5072550;28;20400;-55
2023/05/07 02:18:54;;;;;;;16.10;14.50;;;;;;;;;;5072521;28;20400;-57
2023/05/07 02:21:20;;;;;;;14.63;13.20;;;;;;;;;;5072548;28;20459;-57
2023/05/07 02:23:46;;;;;;;14.95;13.45;;;;;;;;;;5072487;28;20403;-57
2023/05/07 02:26:12;;;;;;;15.60;14.00;;;;;;;;;;5072275;28;20461;-57
2023/05/07 02:28:38;;;;;;;14.57;12.80;;;;;;;;;;5072828;28;20396;-57
2023/05/07 02:31:06;;;;;;;14.68;13.27;;;;;;;;;;5072498;28;20422;-57
2023/05/07 02:33:33;;;;;;;13.50;12.10;;;;;;;;;;5072176;28;20877;-57
2023/05/07 02:36:05;;;;;;;13.70;12.40;;;;;;;;;;5072080;28;20533;-54
2023/05/07 02:38:31;;;;;;;14.77;13.38;;;;;;;;;;5072034;28;20403;-57
2023/05/07 02:40:57;;;;;;;15.75;14.20;;;;;;;;;;5073042;28;20743;-56
2023/05/07 02:43:23;;;;;;;16.10;14.50;;;;;;;;;;5072323;28;20434;-56
2023/05/07 02:45:49;;;;;;;16.23;14.63;;;;;;;;;;5072176;28;20395;-55
2023/05/07 02:48:17;;;;;;;16.17;14.48;;;;;;;;;;5071812;28;20490;-55
2023/05/07 02:50:43;;;;;;;16.67;14.98;;;;;;;;;;5071869;28;20782;-55
2023/05/07 02:53:09;;;;;;;17.48;15.57;;;;;;;;;;5071745;28;20419;-55
2023/05/07 02:55:35;;;;;;;16.35;14.75;;;;;;;;;;5071849;28;20407;-55
2023/05/07 02:58:01;;;;;;;16.40;14.80;;;;;;;;;;5071898;28;20408;-55
2023/05/07 03:00:27;;;;;;;16.38;14.77;;;;;;;;;;5071560;28;20400;-55
2023/05/07 03:02:53;;;;;;;17.70;15.90;;;;;;;;;;5071702;28;20387;-55
2023/05/07 03:05:20;;;;;;;17.55;15.85;;;;;;;;;;5071297;28;20449;-55
2023/05/07 03:07:47;;;;;;;18.17;16.33;;;;;;;;;;5071460;28;20881;-55
2023/05/07 03:10:13;;;;;;;17.10;15.40;;;;;;;;;;5071358;28;20422;-55
2023/05/07 03:12:40;;;;;;;16.65;14.95;;;;;;;;;;5071118;28;20443;-55
2023/05/07 03:15:06;;;;;;;19.17;17.20;;;;;;;;;;5071502;28;20400;-55
2023/05/07 03:17:32;;;;;;;16.97;15.17;;;;;;;;;;5071189;28;20407;-55
2023/05/07 03:19:58;;;;;;;18.73;16.80;;;;;;;;;;5071578;28;20819;-55
2023/05/07 03:22:26;;;;;;;18.13;16.25;;;;;;;;;;5071197;28;20396;-55
2023/05/07 03:24:51;;;;;;;18.40;16.50;;;;;;;;;;5071287;28;20399;-56
2023/05/07 03:27:17;;;;;;;18.92;17.13;;;;;;;;;;5071008;28;20769;-55
2023/05/07 03:29:43;;;;;;;20.55;18.40;;;;;;;;;;5071178;28;20423;-56
2023/05/07 03:32:09;;;;;;;18.10;16.30;;;;;;;;;;5071020;28;20457;-56
2023/05/07 03:34:35;;;;;;;19.35;17.33;;;;;;;;;;5070695;28;20426;-55
2023/05/07 03:37:01;;;;;;;21.13;18.90;;;;;;;;;;5070917;28;20403;-56
2023/05/07 03:39:29;;;;;;;19.30;17.40;;;;;;;;;;5070805;28;20396;-55
2023/05/07 03:41:55;;;;;;;18.98;17.08;;;;;;;;;;5070924;28;20411;-56
2023/05/07 03:44:21;;;;;;;17.45;15.65;;;;;;;;;;5070847;28;20417;-55
2023/05/07 03:46:47;;;;;;;18.70;16.70;;;;;;;;;;5070879;28;20422;-55
2023/05/07 03:49:13;;;;;;;18.38;16.48;;;;;;;;;;5070718;28;20442;-55
2023/05/07 03:51:39;;;;;;;16.60;14.90;;;;;;;;;;5069803;28;20961;-56
2023/05/07 03:54:05;;;;;;;16.48;14.88;;;;;;;;;;5070865;28;20400;-56
2023/05/07 03:56:32;;;;;;;16.53;14.90;;;;;;;;;;5070606;28;20889;-55
2023/05/07 03:58:58;;;;;;;14.27;12.88;;;;;;;;;;5069121;28;20416;-55
2023/05/07 04:01:24;;;;;;;14.38;12.98;;;;;;;;;;5070586;28;20402;-56
2023/05/07 04:03:50;;;;;;;14.50;13.03;;;;;;;;;;5070759;28;20416;-55
2023/05/07 04:06:17;;;;;;;13.90;12.50;;;;;;;;;;5070490;28;20411;-56
2023/05/07 04:08:43;;;;;;;15.25;13.65;;;;;;;;;;5070493;28;20396;-56
2023/05/07 04:11:09;;;;;;;15.52;13.90;;;;;;;;;;5070530;28;20778;-56
2023/05/07 04:13:36;;;;;;;14.07;12.68;;;;;;;;;;5070574;28;20491;-56
2023/05/07 04:16:03;;;;;;;14.70;13.23;;;;;;;;;;5070698;28;20844;-56
2023/05/07 04:18:29;;;;;;;13.43;12.10;;;;;;;;;;5070429;28;20399;-56
2023/05/07 04:20:55;;;;;;;14.07;12.68;;;;;;;;;;5070401;28;20778;-56
2023/05/07 04:23:21;;;;;;;11.88;10.68;;;;;;;;;;5070621;28;20408;-56
2023/05/07 04:25:47;;;;;;;12.50;11.20;;;;;;;;;;5070414;28;20886;-56
2023/05/07 04:28:13;;;;;;;11.68;10.48;;;;;;;;;;5070445;28;20434;-55
2023/05/07 04:30:41;;;;;;;12.15;10.98;;;;;;;;;;5070130;28;20402;-56
2023/05/07 04:33:07;;;;;;;11.15;10.15;;;;;;;;;;5070186;28;20778;-56
2023/05/07 04:35:33;;;;;;;11.20;10.20;;;;;;;;;;5070247;28;20403;-55
2023/05/07 04:37:59;;;;;;;12.43;11.27;;;;;;;;;;5070312;28;20541;-55
2023/05/07 04:40:25;;;;;;;11.23;10.13;;;;;;;;;;5070181;28;20403;-56
2023/05/07 04:42:52;;;;;;;10.10;9.10;;;;;;;;;;5070419;28;20391;-56
2023/05/07 04:45:18;;;;;;;10.32;9.38;;;;;;;;;;5070367;28;20411;-55
2023/05/07 04:47:46;;;;;;;11.00;10.00;;;;;;;;;;5070096;28;20407;-55
2023/05/07 04:50:12;;;;;;;9.73;8.82;;;;;;;;;;5069971;28;20834;-55
2023/05/07 04:52:38;;;;;;;9.90;9.00;;;;;;;;;;5070031;28;20427;-55
2023/05/07 04:55:04;;;;;;;9.82;8.93;;;;;;;;;;5070167;28;20407;-55
2023/05/07 04:57:30;;;;;;;9.90;8.90;;;;;;;;;;5070044;28;20394;-55
2023/05/07 04:59:56;;;;;;;9.43;8.52;;;;;;;;;;5069961;28;20399;-55
2023/05/07 05:02:22;;;;;;;10.30;9.40;;;;;;;;;;5071077;28;20391;-55
2023/05/07 05:04:49;;;;;;;10.27;9.37;;;;;;;;;;5073728;28;20468;-55
2023/05/07 05:07:15;;;;;;;10.82;9.82;;;;;;;;;;5073818;28;20400;-55
2023/05/07 05:09:41;;;;;;;10.27;9.32;;;;;;;;;;5073595;28;20777;-56
2023/05/07 05:12:07;;;;;;;10.57;9.50;;;;;;;;;;5073723;28;20408;-56
2023/05/07 05:14:33;;;;;;;11.00;10.00;;;;;;;;;;5073543;28;20396;-56
2023/05/07 05:16:59;;;;;;;8.70;7.97;;;;;;;;;;5073564;28;20998;-56
2023/05/07 05:19:25;;;;;;;9.68;8.77;;;;;;;;;;5073375;28;20407;-56
2023/05/07 05:21:53;;;;;;;9.00;8.20;;;;;;;;;;5073588;28;20739;-57
2023/05/07 05:24:19;;;;;;;10.00;9.03;;;;;;;;;;5073425;28;20431;-56
2023/05/07 05:26:45;;;;;;;9.13;8.30;;;;;;;;;;5073291;28;20396;-56
2023/05/07 05:29:11;;;;;;;9.10;8.20;;;;;;;;;;5073330;28;20392;-56
2023/05/07 05:31:37;;;;;;;9.60;8.70;;;;;;;;;;5073224;28;20443;-56
2023/05/07 05:34:03;;;;;;;9.73;8.83;;;;;;;;;;5072992;28;20481;-56
2023/05/07 05:36:30;;;;;;;9.88;8.95;;;;;;;;;;5073064;28;20407;-56
2023/05/07 05:38:57;;;;;;;10.38;9.38;;;;;;;;;;5073170;28;20809;-56
2023/05/07 05:41:24;;;;;;;9.00;8.20;;;;;;;;;;5073083;28;20403;-56
2023/05/07 05:43:50;;;;;;;9.43;8.63;;;;;;;;;;5073250;28;20428;-56
2023/05/07 05:46:16;;;;;;;9.90;9.00;;;;;;;;;;5073008;28;20424;-55
2023/05/07 05:48:42;;;;;;;9.40;8.50;;;;;;;;;;5072877;28;21075;-56
2023/05/07 05:51:08;;;;;;;9.23;8.40;;;;;;;;;;5072818;28;20418;-56
2023/05/07 05:53:35;;;;;;;10.07;9.18;;;;;;;;;;5072920;28;20407;-55
2023/05/07 05:56:02;;;;;;;10.52;9.63;;;;;;;;;;5072838;28;20396;-56
2023/05/07 05:58:28;;;;;;;9.95;9.00;;;;;;;;;;5072720;28;20399;-55
2023/05/07 06:00:54;;;;;;;9.73;8.82;;;;;;;;;;5072598;28;20442;-56
2023/05/07 06:03:20;;;;;;;10.60;9.63;;;;;;;;;;5072657;28;20818;-56
2023/05/07 06:05:46;;;;;;;9.80;8.90;;;;;;;;;;5072531;28;20487;-55
2023/05/07 06:08:12;;;;;;;10.80;9.80;;;;;;;;;;5072515;28;20889;-55
2023/05/07 06:10:38;;;;;;;10.60;9.60;;;;;;;;;;5072486;28;20445;-55
2023/05/07 06:13:06;;;;;;;10.23;9.32;;;;;;;;;;5072649;28;20428;-56
2023/05/07 06:15:32;;;;;;;9.68;8.80;;;;;;;;;;5071648;28;20416;-55
2023/05/07 06:17:58;;;;;;;10.43;9.52;;;;;;;;;;5072278;28;20410;-55
2023/05/07 06:20:24;;;;;;;9.70;8.88;;;;;;;;;;5071963;28;20932;-56
2023/05/07 06:22:50;;;;;;;10.57;9.68;;;;;;;;;;5072347;28;20410;-55
2023/05/07 06:25:16;;;;;;;10.37;9.47;;;;;;;;;;5072046;28;20399;-56
2023/05/07 06:27:42;;;;;;;10.00;9.10;;;;;;;;;;5072187;28;20403;-55
2023/05/07 06:30:09;;;;;;;10.82;9.82;;;;;;;;;;5072329;28;20419;-56
2023/05/07 06:32:35;;;;;;;10.70;9.70;;;;;;;;;;5072066;28;20420;-56
2023/05/07 06:35:01;;;;;;;10.43;9.53;;;;;;;;;;5071918;28;20766;-55
2023/05/07 06:37:27;;;;;;;10.82;9.82;;;;;;;;;;5071992;28;20414;-56
2023/05/07 06:39:53;;;;;;;10.47;9.57;;;;;;;;;;5072019;28;20399;-57
2023/05/07 06:42:19;;;;;;;10.02;9.13;;;;;;;;;;5072060;28;20423;-57
2023/05/07 06:44:45;;;;;;;9.48;8.68;;;;;;;;;;5071812;28;20471;-57
2023/05/07 06:47:13;;;;;;;9.40;8.60;;;;;;;;;;5071923;28;20893;-57
2023/05/07 06:49:39;;;;;;;9.60;8.80;;;;;;;;;;5071726;28;20424;-58
2023/05/07 06:52:05;;;;;;;9.07;8.27;;;;;;;;;;5071675;28;20940;-56
2023/05/07 06:54:31;;;;;;;8.82;8.13;;;;;;;;;;5071687;28;20821;-57
2023/05/07 06:56:57;;;;;;;8.57;7.88;;;;;;;;;;5071511;28;20475;-57
2023/05/07 06:59:24;;;;;;;8.80;8.00;;;;;;;;;;5071368;28;20491;-57
2023/05/07 07:01:50;;;;;;;8.30;7.60;;;;;;;;;;5071649;28;20445;-57
2023/05/07 07:04:17;;;;;;;8.77;7.97;;;;;;;;;;5071430;28;20388;-57
2023/05/07 07:06:43;;;;;;;7.35;6.75;;;;;;;;;;5071354;28;20411;-57
2023/05/07 07:09:09;;;;;;;7.90;7.20;;;;;;;;;;5071432;28;20800;-57
2023/05/07 07:11:35;;;;;;;7.88;7.18;;;;;;;;;;5071348;28;20527;-58
2023/05/07 07:14:01;;;;;;;7.50;6.90;;;;;;;;;;5071365;28;20752;-58
2023/05/07 07:16:27;;;;;;;7.40;6.85;;;;;;;;;;5071253;28;20406;-58
2023/05/07 07:18:53;;;;;;;8.20;7.50;;;;;;;;;;5071090;28;20411;-57
2023/05/07 07:21:21;;;;;;;8.10;7.40;;;;;;;;;;5071309;28;20387;-56
2023/05/07 07:23:47;;;;;;;7.65;7.05;;;;;;;;;;5071145;28;20414;-55
2023/05/07 07:26:13;;;;;;;8.30;7.60;;;;;;;;;;5070927;28;20396;-55
2023/05/07 07:28:47;;;;;;;7.20;6.60;;;;;;;;;;5071056;28;20430;-58
2023/05/07 07:31:14;;;;;;;7.25;6.55;;;;;;;;;;5068919;28;20511;-54
2023/05/07 07:33:40;;;;;;;7.28;6.68;;;;;;;;;;5070630;28;20434;-54
2023/05/07 07:36:07;;;;;;;7.55;6.85;;;;;;;;;;5071083;28;20403;-54
2023/05/07 07:38:34;;;;;;;7.30;6.60;;;;;;;;;;5070959;28;20467;-55
2023/05/07 07:41:01;;;;;;;7.47;6.88;;;;;;;;;;5070766;28;20410;-56
2023/05/07 07:43:27;;;;;;;7.30;6.70;;;;;;;;;;5070915;28;20420;-57
2023/05/07 07:45:53;;;;;;;7.75;6.97;;;;;;;;;;5070638;28;20408;-58
2023/05/07 07:48:19;;;;;;;7.18;6.57;;;;;;;;;;5068218;28;20849;-56
2023/05/07 07:50:45;;;;;;;8.10;7.40;;;;;;;;;;5070217;28;20400;-56
2023/05/07 07:53:11;;;;;;;16.65;15.15;;;;;;;;;;5070569;28;20407;-57
2023/05/07 07:55:40;;;;;;;11.48;10.57;;;;;;;;;;5070498;28;20930;-55
2023/05/07 07:58:06;;;;;;;13.00;11.93;;;;;;;;;;5070648;28;20430;-55
2023/05/07 08:00:32;;;;;;;9.25;8.45;;;;;;;;;;5070459;28;20861;-56
2023/05/07 08:02:58;;;;;;;7.32;6.72;;;;;;;;;;5070466;28;20408;-56
2023/05/07 08:05:25;;;;;;;6.75;6.22;;;;;;;;;;5070500;28;20422;-56
2023/05/07 08:07:52;;;;;;;7.20;6.60;;;;;;;;;;5070487;28;20491;-56
2023/05/07 08:10:21;;;;;;;6.83;6.23;;;;;;;;;;5070733;28;20402;-56
2023/05/07 08:12:49;;;;;;;6.75;6.22;;;;;;;;;;5070248;28;20419;-56
2023/05/07 08:15:15;;;;;;;7.40;6.80;;;;;;;;;;5070473;28;20944;-57
2023/05/07 08:17:41;;;;;;;6.60;6.10;;;;;;;;;;5070286;28;20400;-56
2023/05/07 08:20:08;;;;;;;7.80;7.20;;;;;;;;;;5070443;28;21132;-56
2023/05/07 08:22:34;;;;;;;7.07;6.47;;;;;;;;;;5070334;28;20495;-56
2023/05/07 08:25:00;;;;;;;6.60;6.10;;;;;;;;;;5070260;28;20897;-56
2023/05/07 08:27:26;;;;;;;6.90;6.30;;;;;;;;;;5070428;28;20400;-57
2023/05/07 08:29:53;;;;;;;7.18;6.55;;;;;;;;;;5070150;28;20411;-56
2023/05/07 08:32:19;;;;;;;6.53;6.03;;;;;;;;;;5070211;28;20412;-57
2023/05/07 08:34:46;;;;;;;7.20;6.55;;;;;;;;;;5069779;28;20411;-56
2023/05/07 08:37:12;;;;;;;7.50;6.80;;;;;;;;;;5071015;28;20453;-56
2023/05/07 08:39:38;;;;;;;6.93;6.35;;;;;;;;;;5074235;28;20400;-56
2023/05/07 08:42:04;;;;;;;7.00;6.40;;;;;;;;;;5074079;28;20901;-56
2023/05/07 08:44:33;;;;;;;7.75;7.05;;;;;;;;;;5074211;28;20396;-57
2023/05/07 08:47:01;;;;;;;7.80;7.10;;;;;;;;;;5071724;28;20830;-56
2023/05/07 08:49:28;;;;;;;7.70;7.00;;;;;;;;;;5073806;28;20468;-56
2023/05/07 08:51:54;;;;;;;7.63;7.03;;;;;;;;;;5073770;28;20422;-56
2023/05/07 08:54:21;;;;;;;12.07;11.10;;;;;;;;;;5074089;28;20461;-56
2023/05/07 08:56:47;;;;;;;13.88;12.88;;;;;;;;;;5073846;28;20403;-56
2023/05/07 08:59:13;;;;;;;8.45;7.70;;;;;;;;;;5072057;28;20414;-56
2023/05/07 09:01:39;;;;;;;7.63;7.03;;;;;;;;;;5073514;28;20422;-56
2023/05/07 09:04:07;;;;;;;8.40;7.70;;;;;;;;;;5073312;28;20404;-56
2023/05/07 09:06:33;;;;;;;7.78;7.07;;;;;;;;;;5073881;28;20910;-56
2023/05/07 09:09:01;;;;;;;8.23;7.53;;;;;;;;;;5073360;28;20411;-56
2023/05/07 09:11:27;;;;;;;8.30;7.40;;;;;;;;;;5073492;28;20404;-56
2023/05/07 09:13:54;;;;;;;8.00;7.40;;;;;;;;;;5073512;28;20908;-59
2023/05/07 09:16:21;;;;;;;8.10;7.40;;;;;;;;;;5073679;28;20725;-56
2023/05/07 09:18:48;;;;;;;8.32;7.57;;;;;;;;;;5073228;28;20403;-55
2023/05/07 09:21:16;;;;;;;7.85;7.18;;;;;;;;;;5073532;28;20395;-55
2023/05/07 09:23:42;;;;;;;8.40;7.68;;;;;;;;;;5073214;28;20894;-55
2023/05/07 09:26:11;;;;;;;7.95;7.25;;;;;;;;;;5073184;28;20918;-55
2023/05/07 09:28:44;;;;;;;7.60;6.80;;;;;;;;;;5073308;28;20396;-56
2023/05/07 09:31:10;;;;;;;8.10;7.50;;;;;;;;;;5072972;28;20893;-55
2023/05/07 09:33:36;;;;;;;8.13;7.53;;;;;;;;;;5073184;28;20407;-55
2023/05/07 09:36:05;;;;;;;9.38;8.57;;;;;;;;;;5073020;28;20387;-56
2023/05/07 09:38:33;;;;;;;31.58;28.55;;;;;;;;;;5073096;28;20874;-56
2023/05/07 09:41:03;;;;;;;20.27;18.52;;;;;;;;;;5072996;28;20402;-57
2023/05/07 09:43:33;;;;;;;20.25;18.45;;;;;;;;;;5072855;28;20866;-56
2023/05/07 09:45:59;;;;;;;13.77;12.68;;;;;;;;;;5073094;28;20789;-56
2023/05/07 09:48:26;;;;;;;8.32;7.57;;;;;;;;;;5072245;28;20457;-56
2023/05/07 09:50:52;;;;;;;11.40;10.50;;;;;;;;;;5072675;28;20510;-54
2023/05/07 09:53:19;;;;;;;9.38;8.65;;;;;;;;;;5073175;28;20446;-54
2023/05/07 09:55:49;;;;;;;6.80;6.30;;;;;;;;;;5072884;28;20399;-55
2023/05/07 09:58:16;;;;;;;7.05;6.45;;;;;;;;;;5073005;28;20396;-55
2023/05/07 10:00:42;;;;;;;7.03;6.43;;;;;;;;;;5072813;28;20831;-55
2023/05/07 10:03:09;;;;;;;6.72;6.13;;;;;;;;;;5072711;28;20407;-54
2023/05/07 10:05:36;;;;;;;6.37;5.83;;;;;;;;;;5072911;28;20490;-55
2023/05/07 10:08:02;;;;;;;6.73;6.13;;;;;;;;;;5072666;28;20462;-55
2023/05/07 10:10:28;;;;;;;5.90;5.40;;;;;;;;;;5072885;28;20431;-56
2023/05/07 10:12:56;;;;;;;6.30;5.80;;;;;;;;;;5070651;28;20513;-55
2023/05/07 10:15:24;;;;;;;6.15;5.65;;;;;;;;;;5072959;28;20404;-56
2023/05/07 10:17:50;;;;;;;6.25;5.75;;;;;;;;;;5072597;28;20980;-56
2023/05/07 10:20:16;;;;;;;6.30;5.80;;;;;;;;;;5072762;28;20898;-56
2023/05/07 10:22:44;;;;;;;6.43;5.85;;;;;;;;;;5072466;28;20404;-56
2023/05/07 10:25:15;;;;;;;5.85;5.35;;;;;;;;;;5072030;28;20440;-56
2023/05/07 10:27:42;;;;;;;6.90;6.30;;;;;;;;;;5072183;28;20400;-53
2023/05/07 10:30:14;;;;;;;6.43;5.93;;;;;;;;;;5072273;28;20412;-53
2023/05/07 10:32:40;;;;;;;6.53;5.93;;;;;;;;;;5072178;28;20819;-55
2023/05/07 10:35:11;;;;;;;6.85;6.25;;;;;;;;;;5071937;28;20421;-54
2023/05/07 10:37:37;;;;;;;6.88;6.28;;;;;;;;;;5072313;28;20431;-54
2023/05/07 10:40:03;;;;;;;6.05;5.55;;;;;;;;;;5072009;28;20400;-55
2023/05/07 10:42:29;;;;;;;6.32;5.80;;;;;;;;;;5072066;28;20388;-55
2023/05/07 10:44:55;;;;;;;5.97;5.38;;;;;;;;;;5071877;28;20445;-56
2023/05/07 10:47:22;;;;;;;6.63;5.80;;;;;;;;;;5072189;28;20411;-56
2023/05/07 10:50:07;;;;;;;5.57;5.07;;;;;;;;;;5071619;28;20422;-55
2023/05/07 10:52:33;;;;;;;6.22;5.68;;;;;;;;;;5071520;28;20463;-54
2023/05/07 10:55:18;;;;;;;5.53;5.13;;;;;;;;;;5071673;28;20479;-55
2023/05/07 10:57:44;;;;;;;5.90;5.40;;;;;;;;;;5071708;28;20452;-55
2023/05/07 11:00:34;;;;;;;6.07;5.57;;;;;;;;;;5071166;28;20407;-55
2023/05/07 11:03:08;;;;;;;5.82;5.32;;;;;;;;;;5071302;28;20420;-55
2023/05/07 11:05:35;;;;;;;6.53;5.93;;;;;;;;;;5064557;28;20469;-55
2023/05/07 11:08:01;;;;;;;5.90;5.40;;;;;;;;;;5069483;28;20395;-55
2023/05/07 11:10:42;;;;;;;8.68;7.93;;;;;;;;;;5071164;28;20413;-54
2023/05/07 11:13:08;;;;;;;5.68;5.20;;;;;;;;;;5070889;28;20479;-54
2023/05/07 11:15:43;;;;;;;6.00;5.50;;;;;;;;;;5071187;28;20443;-55
2023/05/07 11:18:10;;;;;;;7.72;5.90;;;;;;;;;;5070705;28;20806;-55
2023/05/07 11:20:53;;;;;;;6.00;5.50;;;;;;;;;;5071393;28;20396;-55
2023/05/07 11:23:38;;;;;;;5.65;5.15;;;;;;;;;;5071029;28;20432;-55
2023/05/07 11:26:04;;;;;;;5.65;5.15;;;;;;;;;;5071082;28;20424;-54
2023/05/07 11:28:31;;;;;;;6.40;5.80;;;;;;;;;;5070645;28;20399;-55
2023/05/07 11:30:57;;;;;;;6.45;5.85;;;;;;;;;;5070841;28;20435;-55
2023/05/07 11:33:25;;;;;;;6.18;5.68;;;;;;;;;;5070898;28;20856;-55
2023/05/07 11:35:53;;;;;;;6.88;6.18;;;;;;;;;;5070504;28;20414;-55
2023/05/07 11:38:19;;;;;;;6.47;5.97;;;;;;;;;;5071012;28;20427;-56
2023/05/07 11:40:49;;;;;;;6.63;6.03;;;;;;;;;;5070756;28;20427;-56
2023/05/07 11:43:15;;;;;;;5.82;5.40;;;;;;;;;;5070758;28;20879;-58
2023/05/07 11:45:41;;;;;;;6.57;6.03;;;;;;;;;;5071041;28;20452;-55
2023/05/07 11:48:07;;;;;;;6.95;6.35;;;;;;;;;;5070477;28;20418;-55
2023/05/07 11:50:35;;;;;;;7.57;6.90;;;;;;;;;;5070641;28;20411;-56
2023/05/07 11:53:01;;;;;;;6.57;5.97;;;;;;;;;;5070309;28;20416;-56
2023/05/07 11:55:27;;;;;;;6.70;6.10;;;;;;;;;;5070864;28;20925;-56
2023/05/07 11:57:53;;;;;;;6.40;5.90;;;;;;;;;;5070696;28;20901;-55
2023/05/07 12:00:19;;;;;;;6.13;5.63;;;;;;;;;;5070258;28;20473;-55
2023/05/07 12:02:45;;;;;;;6.30;5.80;;;;;;;;;;5069988;28;20404;-55
2023/05/07 12:05:11;;;;;;;6.47;5.90;;;;;;;;;;5068364;28;20473;-54
2023/05/07 12:07:39;;;;;;;7.30;6.63;;;;;;;;;;5066799;28;20395;-56
2023/05/07 12:10:06;;;;;;;6.65;6.15;;;;;;;;;;5070563;28;20415;-55
2023/05/07 12:12:32;;;;;;;7.07;6.47;;;;;;;;;;5070020;28;20415;-54
2023/05/07 12:14:58;;;;;;;6.75;6.15;;;;;;;;;;5070519;28;20767;-54
2023/05/07 12:17:23;;;;;;;11.35;10.30;;;;;;;;;;5070409;28;20399;-56
2023/05/07 12:19:50;;;;;;;7.10;6.50;;;;;;;;;;5070605;28;20411;-56
2023/05/07 12:22:16;;;;;;;6.88;6.10;;;;;;;;;;5070535;28;20402;-56
2023/05/07 12:24:47;;;;;;;6.75;6.15;;;;;;;;;;5070571;28;20403;-56
2023/05/07 12:27:13;;;;;;;6.70;6.10;;;;;;;;;;5070397;28;20454;-57
2023/05/07 12:29:43;;;;;;;6.43;5.82;;;;;;;;;;5070538;28;20878;-55
2023/05/07 12:32:13;;;;;;;6.07;5.57;;;;;;;;;;5070153;28;20464;-55
2023/05/07 12:34:39;;;;;;;5.93;5.43;;;;;;;;;;5070100;28;20448;-56
2023/05/07 12:37:05;;;;;;;5.90;5.40;;;;;;;;;;5070379;28;20414;-56
2023/05/07 12:39:32;;;;;;;5.80;5.30;;;;;;;;;;5070505;28;20403;-56
2023/05/07 12:42:00;;;;;;;5.95;5.35;;;;;;;;;;5070466;28;20461;-56
2023/05/07 12:44:26;;;;;;;5.28;4.88;;;;;;;;;;5070197;28;20471;-56
2023/05/07 12:46:52;;;;;;;6.68;6.07;;;;;;;;;;5070299;28;20399;-55
2023/05/07 12:49:18;;;;;;;6.17;5.67;;;;;;;;;;5070184;28;20404;-56
2023/05/07 12:51:44;;;;;;;7.10;6.50;;;;;;;;;;5069391;28;20499;-55
2023/05/07 12:54:10;;;;;;;5.28;4.78;;;;;;;;;;5069949;28;20474;-56
2023/05/07 12:56:36;;;;;;;5.40;4.90;;;;;;;;;;5070216;28;20917;-54
2023/05/07 12:59:04;;;;;;;9.35;8.55;;;;;;;;;;5070102;28;20423;-55
2023/05/07 13:01:31;;;;;;;5.43;4.95;;;;;;;;;;5070130;28;20435;-55
2023/05/07 13:04:00;;;;;;;5.20;4.70;;;;;;;;;;5069964;28;20400;-55
2023/05/07 13:06:27;;;;;;;4.65;4.25;;;;;;;;;;5069883;28;20510;-56
2023/05/07 13:08:53;;;;;;;5.33;3.90;;;;;;;;;;5071486;28;20208;-54
2023/05/07 13:11:20;;;;;;;4.70;4.30;;;;;;;;;;5070340;28;20411;-55
2023/05/07 13:13:46;;;;;;;4.82;4.43;;;;;;;;;;5067761;28;20416;-55
2023/05/07 13:16:13;;;;;;;4.60;4.20;;;;;;;;;;5069982;28;20464;-55
2023/05/07 13:18:40;;;;;;;5.80;4.60;;;;;;;;;;5071227;28;20203;-55
2023/05/07 13:21:06;;;;;;;4.60;4.20;;;;;;;;;;5071213;28;20203;-55
2023/05/07 13:23:32;;;;;;;4.73;4.33;;;;;;;;;;5072410;28;20226;-55
2023/05/07 13:25:58;;;;;;;5.23;4.73;;;;;;;;;;5074681;28;20645;-56
2023/05/07 13:28:25;;;;;;;6.13;5.63;;;;;;;;;;5074536;28;20273;-55
2023/05/07 13:30:51;;;;;;;7.63;5.87;;;;;;;;;;5074892;28;20206;-55
2023/05/07 13:33:19;;;;;;;5.30;4.80;;;;;;;;;;5074305;28;20243;-55
2023/05/07 13:35:45;;;;;;;5.97;5.37;;;;;;;;;;5074617;28;20204;-55
2023/05/07 13:38:11;;;;;;;5.97;5.37;;;;;;;;;;5074535;28;20196;-55
2023/05/07 13:40:37;;;;;;;4.50;4.07;;;;;;;;;;5074544;28;20183;-56
2023/05/07 13:43:03;;;;;;;5.07;4.27;;;;;;;;;;5074400;28;20548;-55
2023/05/07 13:45:29;;;;;;;4.27;3.97;;;;;;;;;;5074410;28;20202;-55
2023/05/07 13:47:55;;;;;;;4.63;4.23;;;;;;;;;;5074242;28;20198;-55
2023/05/07 13:50:23;;;;;;;4.20;3.83;;;;;;;;;;5074246;28;20195;-55
2023/05/07 13:52:52;;;;;;;4.30;3.67;;;;;;;;;;5074289;28;20226;-55
2023/05/07 13:55:18;;;;;;;4.57;4.17;;;;;;;;;;5074069;28;20726;-55
2023/05/07 13:57:44;;;;;;;4.80;4.00;;;;;;;;;;5074237;28;20700;-55
2023/05/07 14:00:11;;;;;;;3.57;3.27;;;;;;;;;;5074036;28;20202;-55
2023/05/07 14:02:37;;;;;;;3.83;3.43;;;;;;;;;;5074094;28;20207;-55
2023/05/07 14:05:03;;;;;;;3.67;3.38;;;;;;;;;;5072751;28;20793;-56
2023/05/07 14:07:31;;;;;;;4.33;3.93;;;;;;;;;;5072650;28;20953;-55
2023/05/07 14:09:57;;;;;;;3.50;3.20;;;;;;;;;;5072601;28;20491;-55
2023/05/07 14:12:23;;;;;;;3.90;3.53;;;;;;;;;;5071189;28;20910;-60
2023/05/07 14:14:49;;;;;;;4.88;3.55;;;;;;;;;;5072668;28;20446;-55
2023/05/07 14:17:16;;;;;;;4.07;3.67;;;;;;;;;;5072308;28;20816;-51
2023/05/07 14:19:42;;;;;;;3.92;3.53;;;;;;;;;;5072194;28;20487;-56
2023/05/07 14:22:08;;;;;;;3.80;3.50;;;;;;;;;;5072491;28;20474;-55
2023/05/07 14:24:35;;;;;;;3.90;3.60;;;;;;;;;;5072423;28;20407;-55
2023/05/07 14:27:01;;;;;;;4.13;3.72;;;;;;;;;;5072389;28;20487;-57
2023/05/07 14:29:27;;;;;;;4.43;4.03;;;;;;;;;;5070311;28;20474;-55
2023/05/07 14:31:53;;;;;;;4.53;4.00;;;;;;;;;;5072058;28;20519;-55